Seaton, Illinois
Current Conditions -  °F | °C
As of 2:55 PM on Thursday 23 Oct 2014 (Local Time) from KGBG Reporting Station
Overcast Overcast  
Wind Chill: 58°   Ceiling: 8500
Heat Index: 58°   Visibility: 10mi
Dew Point: 46°   Wind: 10mph
Humidity: 64%   Direction: 160°SSE
Pressure: 30.07"   Gusts: NA
Location:  41.1°N, 90.8°W
Report Text: KGBG 231955Z AUTO 16009KT 10SM BKN085 OVC110 15/08 A3007 RMK AO2 T01450077
Loading
Personal Weather Stations






























Interactive Weather Map
Tropical Storm Tracking
New forecast layout! Learn more

10-Day Weather Forecast

Advertisements
Track Severe Weather on mobile